Terminal Aerodrome Forecast
Issued by NWS Jackson, KY

Home | Current Version | Previous Version | Text Only | Print | Product List | Glossary On
Versions: 1 2 3 4 5 6 7 8 9 10 11 12 13 14 15 16 17 18 19 20 21
000
FTUS43 KJKL 152102 AAB
TAFLOZ
TAF AMD
KLOZ 152102Z 1521/1618 VRB05KT P6SM VCSH SCT025 OVC040
     FM152300 VRB04KT P6SM VCSH OVC025
     FM161300 VRB05KT P6SM VCSH SCT020 BKN040=

USA.gov is the U.S. government's official web portal to all federal, state and local government web resources and services.